Estación meteorológica de Calldetenes (Osona, Plana de Vic)

Consulta los datos en tiempo real de la estación meteorológica de Calldetenes





Hora UTC 13:30
Temperatura 32.6 ºC
Suelo 15 cm 34.4 ºC
Humedad 34.6 %
Presión 1021.2 hPa
Pluja 0.0 mm
Velocidad viento 17.5 km/h
Dirección viento SSW
Radiación solar 303.9 W/m²

Webcam

Datos diarios 2026-09-02



Hora UTC (invierno +1h; verano +2h)
Temperatura (ºC) Humedad (%) Presión (hPa) Velocidad viento (km/h) Precipitación (mm) Radiación solar (W/m²)
Hora UTC Aire Suelo 15 cm Humedad Presión Vel. Dir. Vel. Max Dir. Intent. máx 5 min. Rad. Sol.
00:05 17.8 17.6 89.5 1021.8 4.8 S 4.8 S 0.0 0.1
00:10 17.9 17.5 90.3 1021.8 4.4 S 6.4 SSW 0.0 0.1
00:15 17.9 17.6 88.8 1021.8 2.5 S 4.2 S 0.0 0.1
00:20 17.9 17.5 89.8 1021.8 0.6 S 2.5 S 0.0 0.1
00:25 17.9 17.6 89.7 1021.8 1.4 ESE 2.5 ESE 0.0 0.1
00:30 17.7 17.6 88.3 1021.8 1.4 ENE 2.5 ENE 0.0 0.1
00:35 17.6 17.5 89.8 1021.8 0.5 NW 2.1 NW 0.0 0.1
00:40 17.6 17.4 89.8 1021.8 1.3 NNW 3.9 NNW 0.0 0.1
00:45 17.5 17.4 90.6 1021.9 2.5 N 3.9 N 0.0 0.1
00:50 17.6 17.4 91.0 1021.9 2.3 NNE 3.5 NNE 0.0 0.1
00:55 17.6 17.5 91.0 1021.9 0.2 NNE 1.4 NE 0.0 0.1
01:00 17.7 17.6 90.1 1021.9 0.9 S 4.9 SSW 0.0 0.1
01:05 17.4 17.5 89.4 1021.8 0.0 NNE 0.0 ENE 0.0 0.1
01:10 17.4 17.4 90.0 1021.8 1.7 SE 3.2 SSE 0.0 0.1
01:15 17.0 17.2 89.0 1021.8 0.9 SE 2.5 ESE 0.0 0.1
01:20 16.8 16.9 90.8 1021.8 3.4 SE 4.2 SE 0.0 0.1
01:25 17.0 16.8 92.0 1021.8 3.9 SE 4.9 SE 0.0 0.1
01:30 16.9 16.8 91.0 1021.8 3.7 ESE 5.3 SE 0.0 0.1
01:35 16.7 16.6 91.3 1021.7 2.0 SE 5.3 SE 0.0 0.1
01:40 16.6 16.5 92.2 1021.7 0.0 NNE 0.0 SSE 0.0 0.1
01:45 16.8 16.5 93.6 1021.7 1.8 ESE 5.3 ESE 0.0 0.1
01:50 17.0 16.6 93.4 1021.7 3.6 E 4.9 ESE 0.0 0.1
01:55 16.8 16.7 92.3 1021.8 2.0 ESE 3.5 E 0.0 0.1
02:00 16.8 16.7 92.3 1021.8 1.7 SE 2.8 SE 0.0 0.1
02:05 16.7 16.6 92.4 1021.9 1.9 SE 4.2 SE 0.0 0.1
02:10 16.7 16.5 92.8 1021.9 2.6 SSE 4.2 ESE 0.0 0.1
02:15 16.9 16.5 93.3 1021.7 2.6 SSE 3.5 S 0.0 0.1
02:20 16.6 16.5 90.8 1021.7 0.2 SSE 2.1 SSE 0.0 0.1
02:25 16.5 16.4 92.8 1021.7 2.1 E 3.9 E 0.0 0.1
02:30 16.4 16.4 92.4 1021.7 0.9 ENE 3.2 ENE 0.0 0.1
02:35 16.4 16.3 93.1 1021.8 0.2 SE 2.1 SE 0.0 0.1
02:40 16.6 16.3 93.8 1021.8 1.0 SE 2.1 SE 0.0 0.1
02:45 16.4 16.2 93.1 1021.8 3.1 E 4.6 E 0.0 0.1
02:50 16.4 16.2 93.8 1021.8 3.3 ESE 4.9 ESE 0.0 0.1
02:55 16.3 16.2 93.0 1021.8 3.4 SE 4.9 SE 0.0 0.1
03:00 16.0 16.1 92.3 1021.8 2.6 SE 3.9 SE 0.0 0.1
03:05 16.0 15.9 93.2 1021.8 0.5 SSE 2.5 SE 0.0 0.1
03:10 15.9 15.8 93.4 1021.8 1.0 SSE 2.1 SSE 0.0 0.1
03:15 15.6 15.7 92.9 1021.8 0.2 NE 1.8 NE 0.0 0.1
03:20 15.7 15.6 94.2 1021.8 1.1 SSE 2.1 SE 0.0 0.1
03:25 15.7 15.6 94.2 1021.9 0.5 SSW 2.1 SSW 0.0 0.1
03:30 15.6 15.5 94.4 1021.9 0.2 S 1.4 S 0.0 0.1
03:35 15.5 15.5 94.1 1021.9 0.0 NNE 0.0 S 0.0 0.1
03:40 15.7 15.4 95.2 1021.9 0.3 WSW 2.5 WSW 0.0 0.1
03:45 15.7 15.4 95.2 1021.9 3.2 SW 4.9 SW 0.0 0.1
03:50 16.3 15.6 96.6 1021.9 3.9 S 6.0 SSW 0.0 0.1
03:55 16.3 15.9 94.4 1021.9 2.2 S 4.6 S 0.0 0.1
04:00 16.0 15.8 94.1 1021.9 1.9 SSE 3.2 S 0.0 0.1
04:05 15.9 15.8 94.5 1021.8 1.1 SSE 3.2 SSE 0.0 0.1
04:10 15.5 15.6 93.4 1021.8 0.2 SE 2.5 SE 0.0 0.1
04:15 15.7 15.4 95.0 1021.8 3.2 SE 4.6 ESE 0.0 0.1
04:20 15.5 15.4 93.7 1021.8 2.4 E 3.2 ENE 0.0 0.1
04:25 15.1 15.2 93.9 1021.8 2.7 ENE 3.5 ENE 0.0 0.1
04:30 15.2 15.2 94.8 1021.8 2.0 E 2.8 E 0.0 0.1
04:35 15.3 15.1 94.9 1021.7 3.2 ESE 3.9 ESE 0.0 0.1
04:40 15.2 15.1 94.6 1021.7 1.7 ESE 2.8 ESE 0.0 0.1
04:45 15.2 15.0 95.2 1021.8 2.0 ESE 3.2 ESE 0.0 0.1
04:50 15.1 14.9 95.1 1021.8 1.6 ESE 3.2 ESE 0.0 0.1
04:55 15.0 14.8 95.3 1021.8 2.7 ESE 3.5 ESE 0.0 0.1
05:00 15.1 14.8 95.6 1021.8 2.8 ESE 4.2 ESE 0.0 0.2
05:05 14.9 14.7 95.3 1021.8 1.1 SSE 2.8 SE 0.0 0.5
05:10 14.8 14.7 95.5 1021.8 1.8 SSE 3.5 SSE 0.0 1.1
05:15 14.9 14.6 96.0 1021.8 0.7 SSE 2.8 SSE 0.0 2.1
05:20 14.8 14.6 95.6 1021.8 3.1 ESE 5.6 ESE 0.0 3.4
05:25 15.0 14.7 96.3 1021.9 4.3 ESE 6.0 ESE 0.0 5.2
05:30 15.2 14.7 96.6 1021.9 2.7 SE 6.0 ESE 0.0 7.5
05:35 15.1 14.8 96.1 1021.9 0.1 SE 1.4 SE 0.0 10.0
05:40 15.1 14.8 96.0 1021.9 1.0 WNW 2.1 WNW 0.0 13.0
05:45 15.2 14.9 96.6 1022.1 1.2 NW 2.1 NW 0.0 15.8
05:50 15.3 15.0 96.6 1022.1 1.4 SSE 3.5 SSE 0.0 18.8
05:55 15.3 15.2 96.1 1022.1 0.7 S 2.5 SSW 0.0 21.6
06:00 15.1 15.1 95.9 1022.1 1.3 S 2.1 S 0.0 24.4
06:05 15.3 15.1 96.7 1022.1 0.6 SSW 1.8 SSW 0.0 27.1
06:10 15.8 15.3 97.4 1022.1 0.4 SSW 2.5 SSW 0.0 30.6
06:15 15.9 15.5 97.3 1022.3 1.3 SSW 2.8 S 0.0 34.0
06:20 16.0 15.5 97.1 1022.3 1.3 SE 2.8 SE 0.0 36.8
06:25 16.0 15.6 96.6 1022.4 1.6 ESE 2.8 ESE 0.0 41.7
06:30 16.2 15.7 96.7 1022.4 1.3 ESE 2.5 ESE 0.0 105.8
06:35 16.5 15.8 96.7 1022.4 0.6 ESE 1.8 ESE 0.0 140.5
06:40 16.6 16.0 96.6 1022.4 1.1 ENE 2.1 E 0.0 151.4
06:45 16.8 16.1 96.3 1022.5 0.4 NE 1.8 ENE 0.0 161.4
06:50 16.8 16.2 95.9 1022.5 0.0 ESE 1.1 ESE 0.0 170.8
06:55 16.9 16.3 95.6 1022.6 0.0 ESE 1.1 ESE 0.0 184.9
07:00 17.1 16.5 94.9 1022.6 1.4 S 3.5 SSE 0.0 199.4
07:05 17.6 16.6 92.2 1022.7 3.0 S 4.6 SSE 0.0 215.2
07:10 18.1 16.8 89.8 1022.7 3.9 SSE 5.6 S 0.0 229.3
07:15 18.5 17.1 87.9 1022.7 3.2 S 6.4 SSW 0.0 244.7
07:20 18.8 17.3 86.2 1022.7 3.3 SW 7.1 SSW 0.0 259.5
07:25 18.9 17.4 84.8 1022.7 1.5 W 4.6 W 0.0 274.7
07:30 18.8 17.5 84.5 1022.7 1.9 NW 4.9 NW 0.0 290.3
07:35 18.9 17.5 83.4 1022.7 2.2 NW 4.2 NW 0.0 305.4
07:40 19.0 17.5 82.9 1022.7 1.6 NW 3.5 N 0.0 321.3
07:45 19.2 17.6 82.7 1022.6 1.3 NW 3.2 NW 0.0 335.2
07:50 19.3 17.7 82.7 1022.6 1.5 NE 3.9 NNE 0.0 346.1
07:55 19.5 17.8 82.3 1022.6 2.5 NNW 4.9 W 0.0 362.6
08:00 19.8 17.9 80.0 1022.6 0.8 SW 3.2 W 0.0 378.1
08:05 20.1 18.1 78.5 1022.6 2.0 S 3.2 SSW 0.0 393.1
08:10 20.5 18.3 77.2 1022.6 1.1 NNE 4.2 N 0.0 406.9
08:15 20.6 18.5 77.7 1022.7 2.7 NNE 5.3 NNE 0.0 421.3
08:20 20.7 18.6 76.9 1022.7 1.1 NE 4.2 NE 0.0 435.4
08:25 20.8 18.7 76.8 1022.7 1.4 NW 4.2 NNE 0.0 448.8
08:30 21.0 18.8 75.8 1022.7 1.2 W 3.2 WSW 0.0 464.2
08:35 21.1 18.9 75.4 1022.7 2.5 ENE 5.3 ENE 0.0 478.2
08:40 21.2 19.1 74.5 1022.7 1.9 NNE 6.4 N 0.0 490.4
08:45 21.5 19.2 73.6 1022.7 1.8 NNE 5.3 NNE 0.0 504.3
08:50 21.8 19.3 71.4 1022.7 1.0 SW 2.8 SW 0.0 517.3
08:55 22.2 19.5 69.7 1022.8 2.3 SSW 4.6 SSW 0.0 528.9
09:00 22.5 19.7 68.5 1022.8 3.1 ENE 6.7 NE 0.0 542.2
09:05 22.7 19.9 68.3 1022.8 2.3 SE 6.4 SSW 0.0 555.2
09:10 23.3 20.0 65.5 1022.8 3.6 S 6.4 SSE 0.0 568.5
09:15 23.5 20.3 64.4 1022.8 3.5 SSE 6.7 S 0.0 581.9
09:20 23.9 20.6 63.7 1022.8 2.2 ESE 5.6 ESE 0.0 590.3
09:25 24.3 21.0 60.8 1022.7 3.8 S 7.1 SE 0.0 592.0
09:30 24.4 21.3 60.6 1022.7 2.0 SSE 4.2 SE 0.0 617.2
09:35 24.9 21.5 59.4 1022.8 2.8 W 6.0 WNW 0.0 625.2
09:40 26.5 21.6 53.8 1022.8 1.6 SSW 4.2 WSW 0.0 631.7
09:45 27.3 22.1 51.0 1022.8 2.3 SSW 4.9 S 0.0 644.7
09:50 27.2 22.9 51.2 1022.8 2.0 W 7.1 NW 0.0 653.6
09:55 27.5 23.6 50.4 1022.8 3.1 SW 6.0 SSE 0.0 660.1
10:00 28.0 24.2 48.6 1022.8 3.4 SSW 7.1 S 0.0 675.9
10:05 28.6 25.0 47.2 1022.7 2.3 SW 4.2 NW 0.0 685.5
10:10 29.2 25.8 45.2 1022.7 1.7 SSW 5.3 S 0.0 698.0
10:15 29.5 26.6 44.7 1022.6 1.6 SSE 4.9 S 0.0 706.1
10:20 28.9 27.1 44.1 1022.6 3.6 WNW 6.0 NW 0.0 707.3
10:25 28.6 27.5 44.9 1022.5 1.6 NW 4.6 WNW 0.0 705.0
10:30 29.1 27.9 43.7 1022.5 3.0 NW 6.0 NW 0.0 696.7
10:35 29.3 28.4 43.0 1022.4 4.5 NNW 7.1 NNW 0.0 719.4
10:40 29.5 28.9 42.2 1022.4 3.2 NW 7.1 WNW 0.0 734.8
10:45 30.2 29.5 40.5 1022.3 1.7 N 5.6 ENE 0.0 748.0
10:50 30.2 29.8 41.0 1022.3 3.6 NNW 7.8 NW 0.0 752.2
10:55 30.3 30.4 41.2 1022.3 5.7 NW 10.6 NW 0.0 755.3
11:00 30.4 31.4 40.0 1022.3 5.7 WSW 10.2 SW 0.0 759.8
11:05 31.7 32.9 38.8 1022.2 3.7 WSW 8.8 WSW 0.0 764.2
11:10 32.4 34.4 36.4 1022.2 2.0 NNW 8.1 N 0.0 772.8
11:15 32.1 35.4 36.2 1022.1 6.0 SSW 14.1 SW 0.0 738.4
11:20 31.8 36.0 38.0 1022.1 5.3 SSE 12.7 SSW 0.0 765.7
11:25 32.4 36.7 37.5 1021.9 2.9 ESE 8.5 SE 0.0 777.9
11:30 33.1 37.5 36.9 1021.9 2.8 SW 8.5 SW 0.0 781.3
11:35 32.7 38.0 38.4 1021.8 4.5 NNE 9.9 WSW 0.0 771.1
11:40 33.5 38.5 36.8 1021.8 2.9 WSW 9.5 WSW 0.0 766.3
11:45 33.4 39.3 36.2 1021.7 4.1 WNW 11.3 SSW 0.0 781.0
11:50 33.2 39.7 36.0 1021.7 6.3 SW 11.6 SSW 0.0 785.1
11:55 33.1 39.9 36.9 1021.6 4.0 NW 7.4 W 0.0 782.3
12:00 32.4 40.1 38.5 1021.6 5.7 NE 12.4 NE 0.0 780.4
12:05 31.9 39.2 39.7 1021.4 4.3 NNE 9.2 ENE 0.0 781.3
12:10 32.6 39.2 38.7 1021.4 3.9 NE 9.5 NE 0.0 783.6
12:15 33.2 39.6 34.8 1021.4 9.8 SSW 20.8 S 0.0 781.5
12:20 33.3 39.8 32.5 1021.4 10.1 SSW 24.7 SW 0.0 778.3
12:25 33.7 40.2 31.3 1021.3 6.0 S 19.8 SSW 0.0 772.7
12:30 33.5 40.4 31.1 1021.3 9.3 SSW 22.6 SW 0.0 771.3
12:35 33.6 40.3 31.0 1021.2 14.2 SSW 24.7 SW 0.0 769.8
12:40 33.5 40.1 31.0 1021.2 11.8 SSW 26.1 S 0.0 767.1
12:45 33.6 39.8 31.3 1021.2 17.6 S 30.3 S 0.0 761.3
12:50 33.2 39.0 31.6 1021.2 17.7 S 33.5 S 0.0 755.0
12:55 33.3 38.5 31.7 1021.1 18.6 SSW 28.6 SSW 0.0 751.3
13:00 33.3 38.2 32.1 1021.1 19.4 SSW 31.4 SSW 0.0 745.6
13:05 33.6 38.0 32.2 1021.1 17.7 S 31.1 S 0.0 742.1
13:10 33.1 37.8 33.0 1021.1 18.0 S 30.3 S 0.0 738.4
13:15 33.1 37.1 33.4 1021.2 19.7 SSW 35.3 SW 0.0 734.0
13:20 32.9 36.1 33.9 1021.2 19.3 S 34.9 SSW 0.0 728.8
13:25 32.8 35.2 34.2 1021.2 21.2 S 34.2 SSW 0.0 723.7
13:30 32.6 34.4 34.6 1021.2 17.5 SSW 31.4 SSW 0.0 303.9
Máxima 33.7 40.4 97.4 1022.8 21.2 S 35.3 SW 0.0 785.1
Mínima 14.8 14.6 31.0 1021.1
Total 0.0